Starkville, Colorado
Current Conditions -  °F | °C
As of 8:54 AM on Friday 24 Oct 2014 (Local Time) from KTAD Reporting Station
Clear Clear  
Wind Chill: 58°   Ceiling: Unl
Heat Index: 58°   Visibility: 10mi
Dew Point: 33°   Wind: 9mph
Humidity: 39%   Direction: 260°W
Pressure: 30.25"   Gusts: NA
Location:  37.12°N, 104.52°W
Report Text: KTAD 241454Z AUTO 26008KT 10SM CLR 14/01 A3025 RMK AO2 SLP199 T01440006 53011
Loading
Personal Weather Stations






























Interactive Weather Map
Tropical Storm Tracking
New forecast layout! Learn more

10-Day Weather Forecast

Advertisements
Track Severe Weather on mobile